This is the latest recevied weather packets stored in our database for station/object KT1D-13. If no packets are shown the sender has not sent any weather packets the latest 10 day(s).
| Time | Temp. | Humidity | Pressure | Rain* | Wind** | Luminosity | Snow |
|---|---|---|---|---|---|---|---|
| 1777476318 | 9.44° C | 81% | 1016.1 hPa | 0 mm | - | 387 W/m² | - |
| 1777475119 | 8.89° C | 82% | 1016.5 hPa | 0 mm | - | 337 W/m² | - |
| 1777468520 | 7.78° C | 88% | 1017.6 hPa | 0 mm | - | 146 W/m² | - |
| 1777463722 | 7.78° C | 84% | 1017.8 hPa | 0 mm | - | 121 W/m² | - |
| 1777462542 | 7.78° C | 84% | 1017.8 hPa | 0 mm | - | 98 W/m² | - |
| 1777461322 | 7.22° C | 85% | 1017.4 hPa | 0 mm | - | 86 W/m² | - |
| 1777458323 | 7.22° C | 84% | 1017.4 hPa | 0 mm | - | 20 W/m² | - |
| 1777457123 | 7.22° C | 84% | 1017.3 hPa | 0 mm | - | 8 W/m² | - |
| 1777451725 | 7.22° C | 78% | 1017 hPa | 0 mm | - | 0 W/m² | - |
| 1777449325 | 7.22° C | 76% | 1017.2 hPa | 0 mm | - | 0 W/m² | - |
| 1777445726 | 7.78° C | 76% | 1018.6 hPa | 0 mm | - | 0 W/m² | - |
| 1777443927 | 7.22° C | 76% | 1018.7 hPa | 0 mm | - | 0 W/m² | - |
| 1777442148 | 7.22° C | 76% | 1018.7 hPa | 0 mm | - | 0 W/m² | - |
| 1777441547 | 7.22° C | 76% | 1018.5 hPa | 0 mm | - | 0 W/m² | - |
| 1777440927 | 7.22° C | 76% | 1018.4 hPa | 0 mm | - | 0 W/m² | - |
| 1777440328 | 7.22° C | 76% | 1018.1 hPa | 0 mm | - | 0 W/m² | - |
| 1777439728 | 7.22° C | 76% | 1018.3 hPa | 0 mm | - | 0 W/m² | - |
| 1777437929 | 7.22° C | 76% | 1018.2 hPa | 0 mm | - | 0 W/m² | - |
| 1777437322 | 7.22° C | 75% | 1018.1 hPa | 0 mm | - | 0 W/m² | - |
| 1777436729 | 7.22° C | 75% | 1018.2 hPa | 0 mm | - | 0 W/m² | - |
| 1777434929 | 7.22° C | 76% | 1018.8 hPa | 0 mm | - | 0 W/m² | - |
| 1777433729 | 7.22° C | 76% | 1018.8 hPa | 0 mm | - | 0 W/m² | - |
| 1777431330 | 6.67° C | 78% | 1018.9 hPa | 0 mm | - | 0 W/m² | - |
| 1777427131 | 7.22° C | 75% | 1019.8 hPa | 0 mm | - | 0 W/m² | - |
| 1777426531 | 7.22° C | 75% | 1019.9 hPa | 0 mm | - | 0 W/m² | - |
* Rain latest hour (hover to see other rain measurements)
** Current wind speed in m/s (hover to see current wind gust speed)